EDHKETHC

Guest
Details From EDHK - Kiel Holtenau
To ETHC - CELLE
Flight Number -
Tags decoded
Created
Modified
Stats Distance 117 nm / 217 km
Max Altitude 0 ft / 0 m
Waypoints 4
Social Downloads 0
Likes 0
Share VATSIM

Download

Looking for another format? Having issues loading an existing format? Contact us
Advertisement - Login to hide

Notes

Requested: EDHK HAM M852 BIBNU Z113 OBATU ETHC Unmatched points: M852 BIBNU Z113

Route

EDHK HAM OBATU ETHC

ID Type Via Altitude Latitude Longitude Leg Dist Tot Dist Heading (true) Name
O EDHK APT - 0 ft / 0 m 54.38044˚ 10.14490˚ - 0 nm - Kiel Holtenau
HAM VOR - 0 ft / 0 m 53.68558˚ 10.20500˚ 41 nm 41 nm 177° / 177° HAMBURG VORTAC
OBATU FIX - 0 ft / 0 m 52.70550˚ 10.41533˚ 59 nm 101 nm 173° / 173° -
O ETHC APT - 0 ft / 0 m 52.59120˚ 10.02213˚ 15 nm 117 nm 245° / 244° CELLE

Altitude Profile

Advertisement - Login to hide

EDHK

Details ICAO EDHK (KEL)
Name Kiel Holtenau
Region Germany - Civil
Timezone Europe/Berlin (UTC+1.0)
Stats Elevation 101 ft / 31 m (AMSL)
Location 54.380440° 10.144904°
Runways 2
Magnetic Variation 2.848° E

METAR

EDHK 150950Z 25009KT 9999 OVC009 03/01 Q0993

Decode

TAF

Not found

Departure Runways

ID Width Length Bearing (true) Bearing (mag) Surface Threshold Offset Overrun Length
08 98 ft / 30 m 4,138 ft / 1,261 m 81.98° 79.13° Asphalt 525 ft / 160 m 279 ft / 85 m
08L 98 ft / 30 m 1,478 ft / 450 m 80.65° 77.80° Grass 0 ft / 0 m 0 ft / 0 m
26 98 ft / 30 m 4,138 ft / 1,261 m 261.99° 259.14° Asphalt 151 ft / 46 m 207 ft / 63 m
26R 98 ft / 30 m 1,478 ft / 450 m 260.65° 257.80° Grass 0 ft / 0 m 0 ft / 0 m

ETHC

Details ICAO ETHC (ZCN)
Name CELLE
Region Germany - Military
Timezone Europe/Berlin (UTC+1.0)
Stats Elevation 129 ft / 39 m (AMSL)
Location 52.591198° 10.022134°
Runways 1
Magnetic Variation 2.784° E

METAR

ETHC 150943Z VRB01KT 5000 BR FEW008 SCT030 02/01 Q0995 WHT WHT

Decode

TAF

Not found

Destination Runways

ID Width Length Bearing (true) Bearing (mag) Surface Threshold Offset Overrun Length
08 148 ft / 45 m 5,989 ft / 1,825 m 80.71° 77.93° Asphalt 0 ft / 0 m 0 ft / 0 m
26 148 ft / 45 m 5,989 ft / 1,825 m 260.73° 257.95° Asphalt 0 ft / 0 m 994 ft / 303 m